createdAt,value
2022-09-09T00:02:13.761Z,1.57
2022-09-09T00:04:42.046Z,1.30
2022-09-09T00:07:23.070Z,1.60
2022-09-09T00:09:58.104Z,1.70
2022-09-09T00:12:35.769Z,1.80
2022-09-09T00:15:12.622Z,1.47
2022-09-09T00:17:49.144Z,1.63
2022-09-09T00:20:22.303Z,1.60
2022-09-09T00:22:55.542Z,1.67
2022-09-09T00:25:30.098Z,1.90
2022-09-09T00:27:57.729Z,1.47
2022-09-09T00:30:26.879Z,1.83
2022-09-09T00:33:00.561Z,1.80
2022-09-09T00:35:32.193Z,1.90
2022-09-09T00:38:06.332Z,1.73
2022-09-09T00:40:35.595Z,1.70
2022-09-09T00:43:24.148Z,1.77
2022-09-09T00:46:24.794Z,2.13
2022-09-09T00:49:01.216Z,1.60
2022-09-09T00:51:40.394Z,2.03
2022-09-09T00:54:34.698Z,1.73
2022-09-09T00:57:15.273Z,1.60
2022-09-09T00:59:49.866Z,1.60
2022-09-09T01:02:29.188Z,1.80
2022-09-09T01:05:05.735Z,1.40
2022-09-09T01:07:33.432Z,1.80
2022-09-09T01:10:02.079Z,1.70
2022-09-09T01:12:40.003Z,1.90
2022-09-09T01:15:15.983Z,1.73
2022-09-09T01:17:54.731Z,1.67
2022-09-09T01:20:27.303Z,1.80
2022-09-09T01:23:12.320Z,1.73
2022-09-09T01:26:13.967Z,1.70
2022-09-09T01:28:44.436Z,1.57
2022-09-09T01:31:16.764Z,1.80
2022-09-09T01:33:43.887Z,1.77
2022-09-09T01:36:15.811Z,1.90
2022-09-09T01:38:42.905Z,1.90
2022-09-09T01:41:11.144Z,1.53
2022-09-09T01:43:39.031Z,1.33
2022-09-09T01:46:06.369Z,1.50
2022-09-09T01:48:34.927Z,1.50
2022-09-09T01:51:01.990Z,1.70
2022-09-09T01:53:29.030Z,1.53
2022-09-09T01:56:14.752Z,1.70
2022-09-09T01:58:56.459Z,1.83
2022-09-09T02:01:38.214Z,1.60
2022-09-09T02:04:19.673Z,1.53
2022-09-09T02:06:49.208Z,1.80
2022-09-09T02:09:22.260Z,1.70
2022-09-09T02:12:00.067Z,1.80
2022-09-09T02:14:31.758Z,1.63
2022-09-09T02:17:05.426Z,2.03
2022-09-09T02:19:37.311Z,1.87
2022-09-09T02:22:05.486Z,1.30
2022-09-09T02:24:36.527Z,1.40
2022-09-09T02:27:09.739Z,1.37
2022-09-09T02:29:42.105Z,1.50
2022-09-09T02:32:14.091Z,1.60
2022-09-09T02:34:45.360Z,1.40
2022-09-09T02:37:13.117Z,1.33
2022-09-09T02:39:40.229Z,1.63
2022-09-09T02:42:09.434Z,1.70
2022-09-09T02:44:37.820Z,1.53
2022-09-09T02:47:31.224Z,1.67
2022-09-09T02:50:13.302Z,1.37
2022-09-09T02:52:51.648Z,1.40
2022-09-09T02:55:25.143Z,1.50
2022-09-09T02:57:54.448Z,1.97
2022-09-09T03:00:25.835Z,1.77
2022-09-09T03:02:55.965Z,1.33
2022-09-09T03:05:22.927Z,1.43
2022-09-09T03:07:51.621Z,1.63
2022-09-09T03:10:18.766Z,1.43
2022-09-09T03:12:45.727Z,1.53
2022-09-09T03:15:14.681Z,1.77
2022-09-09T03:17:44.684Z,1.60
2022-09-09T03:20:12.544Z,1.87
2022-09-09T03:22:39.589Z,1.90
2022-09-09T03:25:07.471Z,1.67
2022-09-09T03:27:34.502Z,2.00
2022-09-09T03:30:06.030Z,1.57
2022-09-09T03:32:34.463Z,2.43
2022-09-09T03:35:01.434Z,1.70
2022-09-09T03:37:28.339Z,1.90
2022-09-09T03:40:01.841Z,1.60
2022-09-09T03:42:28.990Z,1.97
2022-09-09T03:44:55.922Z,2.27
2022-09-09T03:47:23.223Z,1.43
2022-09-09T03:49:51.439Z,1.33
2022-09-09T03:52:23.496Z,1.70
2022-09-09T03:54:50.836Z,1.60
2022-09-09T03:57:18.100Z,1.67
2022-09-09T03:59:45.056Z,1.60
2022-09-09T04:02:12.360Z,1.77
2022-09-09T04:04:39.275Z,1.33
2022-09-09T04:07:08.031Z,1.70
2022-09-09T04:09:35.782Z,1.30
2022-09-09T04:12:07.242Z,1.43
2022-09-09T04:14:34.383Z,1.70
2022-09-09T04:17:01.324Z,1.80
2022-09-09T04:19:34.496Z,1.87
2022-09-09T04:22:01.870Z,1.50
2022-09-09T04:24:30.127Z,1.70
2022-09-09T04:26:57.083Z,1.60
2022-09-09T04:29:31.155Z,1.70
2022-09-09T04:31:58.409Z,1.60
2022-09-09T04:34:26.075Z,1.60
2022-09-09T04:36:53.065Z,1.53
2022-09-09T04:39:20.586Z,1.40
2022-09-09T04:41:49.463Z,1.70
2022-09-09T04:44:16.663Z,1.63
2022-09-09T04:46:46.713Z,1.50
2022-09-09T04:49:15.302Z,1.80
2022-09-09T04:51:42.492Z,1.83
2022-09-09T04:54:09.553Z,1.83
2022-09-09T04:56:37.294Z,1.70
2022-09-09T04:59:06.538Z,1.70
2022-09-09T05:01:33.691Z,1.83
2022-09-09T05:04:00.666Z,2.20
2022-09-09T05:06:27.774Z,2.23
2022-09-09T05:08:55.354Z,2.10
2022-09-09T05:11:25.320Z,3.30
2022-09-09T05:13:53.412Z,1.90
2022-09-09T05:16:23.922Z,1.83
2022-09-09T05:18:52.114Z,1.80
2022-09-09T05:21:21.636Z,4.70
2022-09-09T05:23:48.802Z,3.67
2022-09-09T05:26:22.418Z,2.77
2022-09-09T05:28:49.808Z,2.47
2022-09-09T05:31:19.435Z,2.93
2022-09-09T05:33:50.315Z,2.40
2022-09-09T05:36:19.907Z,2.30
2022-09-09T05:38:49.052Z,2.20
2022-09-09T05:41:17.025Z,2.10
2022-09-09T05:43:45.458Z,1.93
2022-09-09T05:46:14.938Z,2.23
2022-09-09T05:48:44.475Z,2.00
2022-09-09T05:51:22.399Z,1.70
2022-09-09T05:53:53.457Z,1.73
2022-09-09T05:56:26.190Z,2.43
2022-09-09T05:58:56.698Z,1.87
2022-09-09T06:01:26.087Z,2.53
2022-09-09T06:03:56.667Z,2.40
2022-09-09T06:06:31.924Z,2.13
2022-09-09T06:08:59.532Z,2.27
2022-09-09T06:11:31.986Z,2.17
2022-09-09T06:13:59.768Z,2.27
2022-09-09T06:16:28.632Z,2.00
2022-09-09T06:18:57.467Z,2.90
2022-09-09T06:21:31.371Z,2.43
2022-09-09T06:24:01.623Z,2.83
2022-09-09T06:26:31.523Z,2.73
2022-09-09T06:29:06.350Z,2.47
2022-09-09T06:31:35.863Z,2.00
2022-09-09T06:34:05.549Z,2.10
2022-09-09T06:36:36.308Z,2.20
2022-09-09T06:39:10.853Z,2.13
2022-09-09T06:41:41.012Z,1.80
2022-09-09T06:44:12.723Z,2.00
2022-09-09T06:46:48.900Z,1.90
2022-09-09T06:49:15.901Z,2.30
2022-09-09T06:51:44.754Z,2.23
2022-09-09T06:54:13.156Z,2.30
2022-09-09T06:56:43.680Z,1.87
2022-09-09T06:59:13.694Z,1.90
2022-09-09T07:01:43.277Z,2.07
2022-09-09T07:04:11.856Z,2.20
2022-09-09T07:06:41.418Z,1.33
2022-09-09T07:09:12.357Z,1.60
2022-09-09T07:11:42.800Z,2.07
2022-09-09T07:14:14.910Z,2.00
2022-09-09T07:16:42.891Z,1.93
2022-09-09T07:19:10.270Z,1.97
2022-09-09T07:21:41.251Z,2.03
2022-09-09T07:24:11.627Z,1.50
2022-09-09T07:26:40.302Z,2.13
2022-09-09T07:29:07.542Z,2.10
2022-09-09T07:31:37.849Z,2.27
2022-09-09T07:34:05.983Z,2.20
2022-09-09T07:36:34.816Z,2.70
2022-09-09T07:39:05.455Z,2.67
2022-09-09T07:41:41.598Z,2.80
2022-09-09T07:44:14.819Z,2.33
2022-09-09T07:46:42.261Z,2.57
2022-09-09T07:49:13.460Z,2.23
2022-09-09T07:51:43.317Z,2.10
2022-09-09T07:54:13.705Z,2.60
2022-09-09T07:56:42.986Z,2.77
2022-09-09T07:59:11.604Z,2.07
2022-09-09T08:01:41.538Z,2.47
2022-09-09T08:04:11.302Z,2.23
2022-09-09T08:06:40.804Z,2.57
2022-09-09T08:09:11.263Z,2.33
2022-09-09T08:11:41.156Z,2.30
2022-09-09T08:14:09.741Z,2.30
2022-09-09T08:16:39.732Z,2.87
2022-09-09T08:19:08.193Z,3.23
2022-09-09T08:21:38.391Z,3.07
2022-09-09T08:24:06.086Z,3.83
2022-09-09T08:26:35.404Z,4.03
2022-09-09T08:29:06.150Z,3.33
2022-09-09T08:31:35.532Z,2.80
2022-09-09T08:34:04.491Z,3.20
2022-09-09T08:36:34.616Z,2.57
2022-09-09T08:39:02.535Z,2.90
2022-09-09T08:42:01.766Z,2.37
2022-09-09T08:44:49.037Z,2.70
2022-09-09T08:47:33.129Z,2.53
2022-09-09T08:50:17.996Z,2.87
2022-09-09T08:52:55.683Z,3.27
2022-09-09T08:55:30.993Z,3.30
2022-09-09T08:58:11.028Z,3.30
2022-09-09T09:01:01.195Z,2.77
2022-09-09T09:03:38.245Z,3.70
2022-09-09T09:06:20.677Z,4.13
2022-09-09T09:09:02.492Z,3.10
2022-09-09T09:11:37.585Z,2.90
2022-09-09T09:14:11.060Z,3.10
2022-09-09T09:16:46.603Z,2.60
2022-09-09T09:19:16.039Z,2.60
2022-09-09T09:21:44.933Z,2.23
2022-09-09T09:24:21.399Z,2.40
2022-09-09T09:26:49.363Z,2.70
2022-09-09T09:29:19.996Z,2.30
2022-09-09T09:31:53.384Z,2.00
2022-09-09T09:34:20.452Z,2.57
2022-09-09T09:36:55.304Z,5.10
2022-09-09T09:42:20.373Z,2.50
2022-09-09T09:44:50.119Z,2.50
2022-09-09T09:47:21.528Z,2.63
2022-09-09T09:50:08.208Z,2.47
2022-09-09T09:52:37.657Z,2.30
2022-09-09T09:55:19.071Z,2.13
2022-09-09T09:57:46.177Z,2.33
2022-09-09T10:00:18.544Z,2.43
2022-09-09T10:02:48.865Z,2.17
2022-09-09T10:05:23.241Z,2.63
2022-09-09T10:08:12.725Z,2.33
2022-09-09T10:10:54.919Z,2.23
2022-09-09T10:13:37.416Z,3.03
2022-09-09T10:16:29.525Z,3.23
2022-09-09T10:19:05.423Z,2.60
2022-09-09T10:21:58.794Z,2.23
2022-09-09T10:25:06.204Z,2.43
2022-09-09T10:27:53.198Z,2.30
2022-09-09T10:30:25.696Z,2.20
2022-09-09T10:33:12.252Z,2.40
2022-09-09T10:35:57.577Z,2.23
2022-09-09T10:38:30.768Z,2.63
2022-09-09T10:41:32.603Z,2.43
2022-09-09T10:44:39.858Z,2.50
2022-09-09T10:47:40.284Z,2.73
2022-09-09T10:51:05.449Z,2.80
2022-09-09T10:53:51.272Z,2.67
2022-09-09T10:56:24.993Z,2.87
2022-09-09T10:58:59.888Z,2.63
2022-09-09T11:01:37.644Z,3.03
2022-09-09T11:04:15.049Z,3.63
2022-09-09T11:06:49.786Z,3.07
2022-09-09T11:09:19.606Z,2.27
2022-09-09T11:11:55.435Z,2.53
2022-09-09T11:14:42.463Z,2.60
2022-09-09T11:17:17.930Z,4.10
2022-09-09T11:19:46.145Z,2.13
2022-09-09T11:22:30.609Z,2.60
2022-09-09T11:25:02.498Z,3.50
2022-09-09T11:27:37.559Z,2.40
2022-09-09T11:30:44.511Z,2.80
2022-09-09T11:34:09.467Z,2.10
2022-09-09T11:37:08.231Z,1.80
2022-09-09T11:40:06.769Z,1.70
2022-09-09T11:42:33.762Z,2.37
2022-09-09T11:45:24.926Z,2.37
2022-09-09T11:48:02.039Z,2.00
2022-09-09T11:50:38.284Z,1.87
2022-09-09T11:53:23.959Z,2.80
2022-09-09T11:56:12.700Z,1.80
2022-09-09T11:58:46.746Z,2.40
2022-09-09T12:01:37.443Z,1.87
2022-09-09T12:04:31.187Z,1.83
2022-09-09T12:07:04.850Z,1.90
2022-09-09T12:09:53.848Z,1.60
2022-09-09T12:12:34.367Z,1.90
2022-09-09T12:15:21.597Z,1.50
2022-09-09T12:18:08.406Z,1.53
2022-09-09T12:21:06.900Z,1.53
2022-09-09T12:23:44.394Z,1.37
2022-09-09T12:26:37.359Z,1.70
2022-09-09T12:29:24.724Z,1.50
2022-09-09T12:32:01.501Z,1.50
2022-09-09T12:34:50.105Z,1.50
2022-09-09T12:37:28.626Z,1.47
2022-09-09T12:39:57.917Z,1.30
2022-09-09T12:42:28.779Z,1.60
2022-09-09T12:44:59.051Z,1.40
2022-09-09T12:47:41.527Z,1.73
2022-09-09T12:50:22.518Z,1.53
2022-09-09T12:52:54.739Z,1.00
2022-09-09T12:55:27.083Z,1.30
2022-09-09T12:57:54.181Z,1.20
2022-09-09T13:00:25.261Z,1.30
2022-09-09T13:02:55.246Z,1.17
2022-09-09T13:05:27.622Z,1.40
2022-09-09T13:08:03.405Z,1.30
2022-09-09T13:10:55.444Z,1.77
2022-09-09T13:13:28.281Z,1.50
2022-09-09T13:15:59.149Z,1.57
2022-09-09T13:18:30.204Z,1.60
2022-09-09T13:21:00.721Z,1.23
2022-09-09T13:23:40.218Z,1.30
2022-09-09T13:26:24.886Z,1.27
2022-09-09T13:28:54.728Z,1.60
2022-09-09T13:31:30.458Z,1.30
2022-09-09T13:33:58.599Z,1.40
2022-09-09T13:36:31.641Z,1.60
2022-09-09T13:39:00.827Z,1.17
2022-09-09T13:41:34.113Z,1.70
2022-09-09T13:44:02.094Z,1.23
2022-09-09T13:46:36.297Z,1.20
2022-09-09T13:49:20.745Z,1.57
2022-09-09T13:51:53.257Z,1.10
2022-09-09T13:54:29.381Z,1.20
2022-09-09T13:56:59.230Z,1.20
2022-09-09T13:59:42.500Z,1.93
2022-09-09T14:02:26.744Z,1.43
2022-09-09T14:04:56.215Z,1.20
2022-09-09T14:07:23.477Z,1.30
2022-09-09T14:09:51.275Z,1.10
2022-09-09T14:12:19.225Z,1.10
2022-09-09T14:14:46.227Z,1.07
2022-09-09T14:17:13.203Z,1.20
2022-09-09T14:19:47.849Z,1.27
2022-09-09T14:22:15.054Z,1.87
2022-09-09T14:24:49.989Z,1.50
2022-09-09T14:27:20.610Z,1.43
2022-09-09T14:29:47.533Z,1.60
2022-09-09T14:32:14.669Z,1.70
2022-09-09T14:34:41.627Z,1.87
2022-09-09T14:37:09.919Z,1.40
2022-09-09T14:39:36.946Z,1.30
2022-09-09T14:42:12.746Z,1.67
2022-09-09T14:44:39.736Z,1.30
2022-09-09T14:47:09.856Z,1.40
2022-09-09T14:49:45.088Z,1.13
2022-09-09T14:52:22.866Z,1.40
2022-09-09T14:54:55.403Z,1.77
2022-09-09T14:57:22.379Z,1.70
2022-09-09T14:59:51.472Z,1.57
2022-09-09T15:02:22.022Z,2.13
2022-09-09T15:04:53.580Z,1.90
2022-09-09T15:07:37.370Z,1.17
2022-09-09T15:10:08.018Z,1.53
2022-09-09T15:12:36.254Z,1.93
2022-09-09T15:15:05.027Z,1.37
2022-09-09T15:17:41.230Z,1.83
2022-09-09T15:20:10.031Z,1.30
2022-09-09T15:22:42.475Z,1.70
2022-09-09T15:25:09.627Z,1.63
2022-09-09T15:27:37.378Z,1.60
2022-09-09T15:30:09.062Z,1.30
2022-09-09T15:32:35.985Z,1.37
2022-09-09T15:35:03.119Z,2.67
2022-09-09T15:37:30.055Z,1.57
2022-09-09T15:40:01.952Z,1.60
2022-09-09T15:42:28.955Z,1.70
2022-09-09T15:45:02.270Z,1.17
2022-09-09T15:47:29.300Z,1.33
2022-09-09T15:49:59.252Z,1.20
2022-09-09T15:52:32.022Z,1.67
2022-09-09T15:55:03.002Z,1.77
2022-09-09T15:57:34.475Z,1.40
2022-09-09T16:00:02.428Z,1.47
2022-09-09T16:02:32.250Z,1.50
2022-09-09T16:04:59.240Z,1.20
2022-09-09T16:07:26.219Z,1.50
2022-09-09T16:09:53.757Z,4.73
2022-09-09T16:12:27.374Z,2.17
2022-09-09T16:14:54.272Z,1.70
2022-09-09T16:17:23.369Z,2.00
2022-09-09T16:19:50.335Z,1.33
2022-09-09T16:22:26.027Z,1.77
2022-09-09T16:24:53.009Z,1.30
2022-09-09T16:27:33.977Z,1.37
2022-09-09T16:30:01.109Z,1.20
2022-09-09T16:32:28.038Z,1.93
2022-09-09T16:34:54.984Z,1.60
2022-09-09T16:37:21.916Z,1.53
2022-09-09T16:39:48.908Z,1.30
2022-09-09T16:42:17.896Z,1.50
2022-09-09T16:44:51.014Z,1.47
2022-09-09T16:47:18.965Z,1.30
2022-09-09T16:49:46.469Z,1.57
2022-09-09T16:52:17.106Z,1.30
2022-09-09T16:54:50.508Z,1.40
2022-09-09T16:57:20.528Z,1.23
2022-09-09T16:59:49.097Z,1.23
2022-09-09T17:02:19.118Z,1.30
2022-09-09T17:04:46.166Z,1.40
2022-09-09T17:07:13.072Z,1.40
2022-09-09T17:09:40.020Z,1.60
2022-09-09T17:12:09.361Z,1.20
2022-09-09T17:14:39.351Z,1.80
2022-09-09T17:17:25.023Z,2.13
2022-09-09T17:19:55.370Z,1.20
2022-09-09T17:22:27.478Z,1.20
2022-09-09T17:24:54.595Z,1.57
2022-09-09T17:27:24.027Z,1.20
2022-09-09T17:29:50.942Z,1.10
2022-09-09T17:32:19.269Z,0.97
2022-09-09T17:34:49.514Z,1.00
2022-09-09T17:37:19.190Z,1.23
2022-09-09T17:39:49.538Z,1.30
2022-09-09T17:42:16.727Z,1.70
2022-09-09T17:44:46.787Z,1.70
2022-09-09T17:47:23.643Z,1.60
2022-09-09T17:49:50.630Z,1.57
2022-09-09T17:52:23.930Z,1.63
2022-09-09T17:54:57.599Z,1.97
2022-09-09T17:57:28.743Z,1.70
2022-09-09T17:59:55.832Z,3.20
2022-09-09T18:02:42.215Z,2.47
2022-09-09T18:05:11.992Z,1.47
2022-09-09T18:07:41.968Z,1.30
2022-09-09T18:10:09.635Z,1.13
2022-09-09T18:12:36.549Z,1.40
2022-09-09T18:15:07.860Z,1.57
2022-09-09T18:17:34.897Z,1.50
2022-09-09T18:20:07.291Z,2.07
2022-09-09T18:22:34.202Z,1.90
2022-09-09T18:25:01.293Z,2.00
2022-09-09T18:27:31.449Z,1.30
2022-09-09T18:29:58.511Z,1.50
2022-09-09T18:32:25.470Z,1.20
2022-09-09T18:34:59.157Z,1.67
2022-09-09T18:37:27.425Z,1.30
2022-09-09T18:40:04.042Z,1.30
2022-09-09T18:42:31.019Z,1.50
2022-09-09T18:45:00.712Z,1.60
2022-09-09T18:47:27.903Z,1.73
2022-09-09T18:49:55.421Z,1.60
2022-09-09T18:52:22.680Z,1.13
2022-09-09T18:54:51.162Z,1.30
2022-09-09T18:57:18.631Z,1.77
2022-09-09T18:59:45.556Z,1.30
2022-09-09T19:02:15.724Z,1.30
2022-09-09T19:04:45.518Z,0.93
2022-09-09T19:07:12.481Z,1.10
2022-09-09T19:09:39.707Z,1.10
2022-09-09T19:12:08.437Z,1.07
2022-09-09T19:14:35.522Z,1.03
2022-09-09T19:17:05.393Z,1.20
2022-09-09T19:19:33.685Z,1.00
2022-09-09T19:22:01.864Z,0.80
2022-09-09T19:24:31.146Z,1.20
2022-09-09T19:27:01.849Z,1.10
2022-09-09T19:29:36.365Z,1.33
2022-09-09T19:32:51.626Z,1.30
2022-09-09T19:34:51.473Z,1.30
2022-09-09T19:37:19.358Z,1.30
2022-09-09T19:39:46.708Z,1.40
2022-09-09T19:42:17.062Z,1.00
2022-09-09T19:44:46.309Z,1.13
2022-09-09T19:47:14.872Z,1.20
2022-09-09T19:49:46.738Z,1.00
2022-09-09T19:52:16.992Z,1.10
2022-09-09T19:54:45.041Z,1.13
2022-09-09T19:57:12.182Z,1.10
2022-09-09T19:59:39.169Z,1.10
2022-09-09T20:02:07.480Z,2.33
2022-09-09T20:04:35.283Z,1.63
2022-09-09T20:07:02.291Z,1.20
2022-09-09T20:09:30.553Z,1.20
2022-09-09T20:11:57.745Z,1.33
2022-09-09T20:14:25.075Z,1.20
2022-09-09T20:16:52.236Z,1.20
2022-09-09T20:19:20.724Z,1.03
2022-09-09T20:21:52.222Z,1.10
2022-09-09T20:24:22.857Z,1.30
2022-09-09T20:26:50.178Z,1.20
2022-09-09T20:29:19.439Z,0.90
2022-09-09T20:31:47.287Z,1.00
2022-09-09T20:34:16.721Z,1.63
2022-09-09T20:36:45.978Z,1.20
2022-09-09T20:39:15.417Z,1.20
2022-09-09T20:41:47.062Z,1.23
2022-09-09T20:44:17.745Z,1.17
2022-09-09T20:46:49.806Z,1.30
2022-09-09T20:49:19.094Z,1.10
2022-09-09T20:51:50.225Z,1.00
2022-09-09T20:54:19.861Z,1.50
2022-09-09T20:56:48.247Z,1.10
2022-09-09T20:59:18.954Z,1.20
2022-09-09T21:01:47.602Z,1.40
2022-09-09T21:04:17.252Z,1.60
2022-09-09T21:06:50.206Z,1.27
2022-09-09T21:09:26.732Z,1.00
2022-09-09T21:11:54.081Z,1.80
2022-09-09T21:14:23.945Z,1.10
2022-09-09T21:16:50.905Z,1.30
2022-09-09T21:19:17.864Z,1.43
2022-09-09T21:21:46.568Z,1.50
2022-09-09T21:24:15.357Z,1.70
2022-09-09T21:26:42.377Z,1.40
2022-09-09T21:29:10.026Z,1.30
2022-09-09T21:31:37.856Z,1.60
2022-09-09T21:34:13.429Z,1.43
2022-09-09T21:36:40.841Z,1.40
2022-09-09T21:39:10.926Z,1.60
2022-09-09T21:41:40.052Z,1.60
2022-09-09T21:44:09.216Z,2.20
2022-09-09T21:46:37.355Z,4.90
2022-09-09T21:49:04.583Z,4.50
2022-09-09T21:51:31.539Z,3.17
2022-09-09T21:53:58.825Z,3.90
2022-09-09T21:56:27.170Z,1.33
2022-09-09T21:58:57.656Z,1.40
2022-09-09T22:01:28.215Z,2.07
2022-09-09T22:03:55.527Z,1.90
2022-09-09T22:06:22.655Z,1.50
2022-09-09T22:08:50.071Z,1.80
2022-09-09T22:11:22.105Z,1.67
2022-09-09T22:13:49.553Z,1.53
2022-09-09T22:16:21.953Z,1.80
2022-09-09T22:18:56.979Z,1.53
2022-09-09T22:21:25.994Z,1.40
2022-09-09T22:23:53.619Z,1.60
2022-09-09T22:26:24.772Z,1.77
2022-09-09T22:28:57.308Z,1.73
2022-09-09T22:31:27.389Z,1.67
2022-09-09T22:33:55.220Z,1.90
2022-09-09T22:36:22.810Z,1.40
2022-09-09T22:38:50.420Z,1.67
2022-09-09T22:41:18.836Z,3.70
2022-09-09T22:43:46.676Z,2.67
2022-09-09T22:46:13.846Z,2.60
2022-09-09T22:48:43.240Z,4.17
2022-09-09T22:51:12.476Z,3.57
2022-09-09T22:53:40.869Z,3.20
2022-09-09T22:56:12.808Z,3.00
2022-09-09T22:58:43.493Z,2.90
2022-09-09T23:01:15.519Z,4.03
2022-09-09T23:03:47.321Z,3.27
2022-09-09T23:06:20.148Z,3.10
2022-09-09T23:08:49.191Z,2.40
2022-09-09T23:11:17.271Z,2.47
2022-09-09T23:13:52.513Z,2.10
2022-09-09T23:16:22.672Z,3.17
2022-09-09T23:18:55.130Z,2.07
2022-09-09T23:21:26.240Z,3.00
2022-09-09T23:23:54.394Z,3.30
2022-09-09T23:26:25.707Z,2.27
2022-09-09T23:28:55.225Z,2.07
2022-09-09T23:31:24.954Z,2.20
2022-09-09T23:33:58.039Z,3.13
2022-09-09T23:36:26.541Z,2.50
2022-09-09T23:39:03.816Z,2.53
2022-09-09T23:41:35.136Z,3.50
2022-09-09T23:44:03.971Z,2.37
2022-09-09T23:46:33.330Z,2.03
2022-09-09T23:49:02.926Z,1.97
2022-09-09T23:51:31.463Z,2.93
2022-09-09T23:54:02.813Z,3.40
2022-09-09T23:56:33.921Z,2.67
2022-09-09T23:59:01.617Z,2.60
